メインページ
METAR-TAF:

METAR-TAF

空港 :

クライストチャーチ国際空港

クライストチャーチ, ニュージーランド

緯度: 43-29S, 経度: 172-33E, 海抜: 38m

現時点の気象観測

当レポートは21分前の03:30(UTC)に作成
北/北東の風 12kt
気温 25°C
湿度 47%
気圧 1015 hPa
視程10km以上

METAR: NZCH 250330Z AUTO 03012KT 9999 NCD 25/13 Q1015 NOSIG

時間: 16:51 (03:51 UTC)

予報

当レポートは19分前の03:32(UTC)に作成
予報は25日の 03時(UTC)から 26日の 00時(UTC)まで有効
北/北東の風 15kt
視程10km以上
高度6000ftの雲はほとんどない

TAF: NZCH 250332Z 2503/2600 02015KT 9999 FEW060

4,000以上の空港の気象観測と天気予報(METAR報とTAF報)

利用可能な観測所は地図上に黄色い丸と赤い丸で示す。

丸の上にカーソルを重ねると観測所名を参照できる。

次にクリックすると気象観測と天気予報を参照できる。

マップの切り替え:黒色「×」印の緑ボタンをクリックして拡大、「-」印の緑ボタンをクリックして縮小、緑色の三角印をクリックして隣りの地図に切り替え


METAR-TAF: